Latest Weather Observations for Hindmarsh Island

IDS60801

Issued at 6:31 am CST Sunday 26 June 2016 (issued every 30 minutes, with the page automatically refreshed every 10 minutes)

About weather observations | Map of weather stations | Latest weather observations for SA | Other Formats
Station Details ID: 023894 Name: HINDMARSH ISLAND AWS Lat: -35.52 Lon: 138.82 Height: 11.0 m
Data from the previous 72 hours. | See also: Recent months at Hindmarsh Island
Date/Time
CST
Temp
°C
App
Temp
°C
Dew
Point
°C
Rel
Hum
%
Delta-T
°C
Wind Press
QNH
hPa
Press
MSL
hPa
Rain since
9am
mm
Dir  Spd
km/h
Gust
km/h
Spd
kts
Gust
kts
26/06:30am 9.2 5.3 5.2 76 1.8 N 15 17 8 9 1017.5 - 0.0
26/06:00am 9.2 5.7 5.4 77 1.7 N 13 17 7 9 1017.8 1017.8 0.0
26/05:30am 9.2 6.1 5.4 77 1.7 N 11 15 6 8 1017.9 - 0.0
26/05:00am 9.4 5.9 5.6 77 1.7 N 13 19 7 10 1018.1 - 0.0
26/04:30am 9.1 5.6 5.5 78 1.6 N 13 15 7 8 1018.3 - 0.0
26/04:00am 9.2 5.7 5.6 78 1.6 N 13 17 7 9 1018.5 - 0.0
26/03:30am 9.5 5.6 5.5 76 1.8 N 15 19 8 10 1018.4 - 0.0
26/03:00am 9.5 5.6 5.5 76 1.8 N 15 20 8 11 1018.6 1018.7 0.0
26/02:30am 10.4 4.8 5.6 72 2.2 N 24 33 13 18 1018.5 - 0.0
26/02:00am 9.5 4.9 5.7 77 1.7 NNE 19 22 10 12 1018.9 - 0.0
26/01:30am 9.4 5.2 5.8 78 1.6 NNE 17 22 9 12 1019.2 - 0.0
26/01:00am 9.5 6.1 6.0 79 1.6 N 13 17 7 9 1019.3 - 0.0
26/12:30am 9.5 6.5 6.2 80 1.5 N 11 15 6 8 1019.6 - 0.0
26/12:00am 9.4 6.5 6.3 81 1.4 N 11 13 6 7 1019.7 1019.7 0.0
 
Date/Time
CST
Temp
°C
App
Temp
°C
Dew
Point
°C
Rel
Hum
%
Delta-T
°C
Wind Press
QNH
hPa
Press
MSL
hPa
Rain since
9am
mm
Dir  Spd
km/h
Gust
km/h
Spd
kts
Gust
kts
25/11:30pm 9.4 6.4 6.1 80 1.5 N 11 15 6 8 1020.0 - 0.0
25/11:00pm 9.5 6.5 6.0 79 1.6 N 11 15 6 8 1020.2 - 0.0
25/10:30pm 9.2 5.4 5.9 80 1.5 N 15 19 8 10 1020.4 - 0.0
25/10:00pm 8.9 5.1 5.6 80 1.5 N 15 17 8 9 1020.5 - 0.0
25/09:30pm 9.0 5.2 5.9 81 1.4 NNE 15 17 8 9 1020.3 - 0.0
25/09:00pm 8.2 4.2 5.1 81 1.4 NE 15 17 8 9 1020.8 1020.8 0.0
25/08:30pm 7.9 3.8 4.3 78 1.6 NE 15 17 8 9 1020.9 - 0.0
25/08:00pm 9.1 5.9 5.3 77 1.7 NNE 11 15 6 8 1021.6 - 0.0
25/07:30pm 9.3 6.2 5.5 77 1.7 N 11 13 6 7 1021.9 - 0.0
25/07:00pm 9.6 6.4 5.2 74 2.0 N 11 11 6 6 1021.6 - 0.0
25/06:30pm 9.8 6.6 5.0 72 2.2 N 11 11 6 6 1021.4 - 0.0
25/06:00pm 10.4 7.6 5.0 69 2.4 N 9 13 5 7 1021.3 1021.3 0.0
25/05:30pm 11.2 8.4 5.3 67 2.7 NNW 9 11 5 6 1021.3 - 0.0
25/05:00pm 12.1 9.8 5.7 65 3.0 NNE 7 9 4 5 1021.3 - 0.0
25/04:30pm 12.9 10.3 6.0 63 3.3 N 9 11 5 6 1021.3 - 0.0
25/04:00pm 12.9 9.8 5.6 61 3.4 N 11 15 6 8 1021.5 - 0.0
25/03:30pm 13.0 10.3 5.7 61 3.4 NNW 9 11 5 6 1021.7 - 0.0
25/03:00pm 12.8 9.7 5.7 62 3.3 NW 11 13 6 7 1021.7 1021.7 0.0
25/02:30pm 12.6 9.6 6.0 64 3.1 NW 11 13 6 7 1022.0 - 0.0
25/02:00pm 13.0 10.0 6.1 63 3.3 NW 11 15 6 8 1022.2 - 0.0
25/01:30pm 13.0 10.6 5.2 59 3.6 NW 7 11 4 6 1022.4 - 0.0
25/01:00pm 13.0 10.7 5.7 61 3.4 N 7 9 4 5 1022.7 - 0.0
25/12:30pm 12.7 9.7 6.1 64 3.1 NE 11 15 6 8 1023.4 - 0.0
25/12:00pm 13.0 9.2 5.7 61 3.4 NE 15 19 8 10 1023.9 1023.9 0.0
25/11:30am 13.0 9.5 7.0 67 2.9 NNE 15 19 8 10 1024.3 - 0.0
25/11:00am 12.0 8.3 6.3 68 2.7 N 15 20 8 11 1024.5 - 0.0
25/10:30am 11.5 8.2 6.4 71 2.4 N 13 17 7 9 1024.8 - 0.0
25/10:00am 10.8 7.8 6.0 72 2.2 N 11 13 6 7 1024.8 - 0.0
25/09:30am 9.6 6.5 5.6 76 1.8 NNE 11 13 6 7 1024.7 - 0.0
25/09:00am 8.4 4.8 4.8 78 1.6 N 13 15 7 8 1024.6 1024.6 1.6
25/08:30am 7.6 4.3 4.6 81 1.3 N 11 15 6 8 1024.3 - 1.6
25/08:00am 6.8 3.1 4.3 84 1.1 N 13 15 7 8 1024.3 - 1.6
25/07:30am 6.3 2.1 3.6 83 1.1 N 15 19 8 10 1024.0 - 1.6
25/07:00am 6.5 2.3 3.8 83 1.1 N 15 17 8 9 1023.7 - 1.6
25/06:30am 6.6 2.8 3.9 83 1.2 N 13 17 7 9 1023.5 - 1.6
25/06:00am 6.7 2.9 4.0 83 1.1 N 13 17 7 9 1023.4 1023.4 1.6
25/05:30am 6.8 3.5 4.5 85 1.0 N 11 15 6 8 1023.3 - 1.4
25/05:00am 6.6 2.8 4.1 84 1.1 NNE 13 15 7 8 1023.0 - 1.4
25/04:30am 8.0 4.4 5.1 82 1.3 N 13 15 7 8 1023.0 - 1.4
25/04:00am 8.7 6.3 5.1 78 1.6 ENE 7 11 4 6 1022.9 - 1.4
25/03:30am 9.5 6.4 5.7 77 1.7 W 11 15 6 8 1022.7 - 1.4
25/03:00am 8.1 4.4 4.7 79 1.5 WNW 13 15 7 8 1022.7 1022.6 1.4
25/02:30am 8.0 4.7 4.6 79 1.5 NW 11 13 6 7 1022.8 - 1.4
25/02:00am 8.5 4.9 4.9 78 1.6 WNW 13 15 7 8 1022.6 - 1.4
25/01:30am 8.8 5.2 4.8 76 1.8 WNW 13 15 7 8 1022.4 - 1.4
25/01:00am 8.5 5.3 4.9 78 1.6 WNW 11 13 6 7 1022.3 - 1.4
25/12:30am 8.8 5.6 5.2 78 1.6 W 11 17 6 9 1022.4 - 1.4
25/12:00am 8.8 6.0 5.0 77 1.7 NW 9 13 5 7 1022.4 1022.4 1.4
 
Date/Time
CST
Temp
°C
App
Temp
°C
Dew
Point
°C
Rel
Hum
%
Delta-T
°C
Wind Press
QNH
hPa
Press
MSL
hPa
Rain since
9am
mm
Dir  Spd
km/h
Gust
km/h
Spd
kts
Gust
kts
24/11:30pm 9.2 6.7 5.0 75 1.9 NW 7 9 4 5 1022.4 - 1.4
24/11:00pm 9.5 6.3 5.1 74 2.0 WNW 11 15 6 8 1022.5 - 1.4
24/10:30pm 10.3 5.7 5.7 73 2.1 WSW 19 24 10 13 1022.4 - 1.4
24/10:00pm 9.4 6.0 4.2 70 2.3 WNW 11 15 6 8 1022.3 - 1.4
24/09:30pm 10.0 7.5 4.6 69 2.4 WNW 7 13 4 7 1022.2 - 1.4
24/09:00pm 9.7 5.9 4.1 68 2.5 WNW 13 19 7 10 1021.9 1021.9 1.4
24/08:30pm 11.0 4.7 3.8 61 3.2 SW 26 33 14 18 1021.7 - 1.4
24/08:00pm 11.0 3.8 5.1 67 2.7 SW 32 41 17 22 1021.4 - 1.4
24/07:30pm 11.3 4.9 5.4 67 2.7 SW 28 33 15 18 1021.0 - 1.4
24/07:00pm 10.9 4.3 4.4 64 2.9 SW 28 35 15 19 1020.5 - 1.4
24/06:30pm 10.7 3.9 5.0 68 2.6 SSW 30 39 16 21 1020.0 - 1.4
24/06:00pm 10.4 4.3 4.8 68 2.5 W 26 35 14 19 1019.6 1019.6 1.4
24/05:56pm 10.2 3.8 5.2 71 2.3 W 28 33 15 18 1019.6 - 1.4
24/05:44pm 10.7 2.4 5.9 72 2.2 WSW 39 48 21 26 1019.4 - 1.2
24/05:42pm 10.7 4.4 5.9 72 2.2 SW 28 48 15 26 1019.4 - 1.2
24/05:30pm 10.5 3.4 5.3 70 2.4 SSW 32 43 17 23 1019.2 - 1.2
24/05:00pm 11.5 4.6 4.5 62 3.2 SW 30 37 16 20 1018.5 - 1.2
24/04:30pm 11.4 4.2 5.7 68 2.6 SSW 33 43 18 23 1018.1 - 1.2
24/04:19pm 11.5 2.9 4.7 63 3.1 SW 39 57 21 31 1017.9 - 1.2
24/04:17pm 11.5 2.9 4.7 63 3.1 SW 39 57 21 31 1017.9 - 1.2
24/04:00pm 12.0 3.6 3.8 57 3.7 SW 37 48 20 26 1017.5 - 1.2
24/03:30pm 12.1 4.4 5.5 64 3.1 SW 35 46 19 25 1017.3 - 1.2
24/03:00pm 11.6 2.6 4.3 61 3.3 SW 41 48 22 26 1016.9 1016.8 1.2
24/02:36pm 11.7 3.1 6.4 70 2.5 SW 41 59 22 32 1016.6 - 1.2
24/02:34pm 11.7 3.1 6.4 70 2.5 SW 41 59 22 32 1016.6 - 1.2
24/02:30pm 11.0 1.3 6.0 71 2.3 SW 46 61 25 33 1016.5 - 1.2
24/02:00pm 11.1 1.1 4.1 62 3.1 SW 46 59 25 32 1016.2 - 1.2
24/01:52pm 11.7 2.7 4.7 62 3.2 SW 41 61 22 33 1016.2 - 1.2
24/01:50pm 11.7 2.3 4.7 62 3.2 SW 43 61 23 33 1016.2 - 1.2
24/01:30pm 11.2 2.5 4.2 62 3.1 SW 39 52 21 28 1016.2 - 1.2
24/01:01pm 10.4 0.4 6.0 74 2.0 SW 48 67 26 36 1016.3 - 1.2
24/01:00pm 10.3 0.3 6.1 75 1.9 SW 48 67 26 36 1016.3 - 1.2
24/12:46pm 11.1 3.0 5.2 67 2.7 SW 37 56 20 30 1016.0 - 1.0
24/12:44pm 11.1 3.0 5.2 67 2.7 SW 37 56 20 30 1016.0 - 1.0
24/12:35pm 10.7 2.7 5.9 72 2.2 SW 37 46 20 25 1016.2 - 1.0
24/12:30pm 10.7 3.2 6.3 74 2.1 WSW 35 46 19 25 1016.3 - 1.0
24/12:00pm 11.7 2.6 4.2 60 3.4 WSW 41 54 22 29 1016.0 1015.9 0.2
24/11:30am 12.1 1.6 3.6 56 3.8 SW 48 65 26 35 1015.7 - 0.2
24/11:01am 11.3 -0.2 4.5 63 3.1 SW 54 72 29 39 1015.4 - 0.2
24/11:00am 11.0 -1.0 3.5 60 3.3 SW 56 72 30 39 1015.3 - 0.2
24/10:53am 11.4 1.3 3.9 60 3.3 WSW 46 69 25 37 1015.1 - 0.2
24/10:51am 11.4 1.3 3.9 60 3.3 WSW 46 69 25 37 1015.1 - 0.2
24/10:30am 11.3 0.7 2.9 56 3.7 SW 48 59 26 32 1014.9 - 0.2
24/10:00am 10.9 0.2 2.7 57 3.5 WSW 48 67 26 36 1014.3 - 0.2
24/09:33am 10.5 0.9 4.6 67 2.6 SW 44 63 24 34 1013.6 - 0.2
24/09:31am 10.5 0.9 4.6 67 2.6 SW 44 63 24 34 1013.6 - 0.2
24/09:30am 10.1 0.3 3.6 64 2.8 SW 44 61 24 33 1013.5 - 0.2
24/09:24am 9.7 0.3 4.7 71 2.2 SW 43 61 23 33 1013.4 - 0.2
24/09:12am 8.8 -0.5 5.0 77 1.7 SW 43 72 23 39 1013.3 - 0.2
24/09:05am 8.8 -4.6 5.2 78 1.6 SSW 65 83 35 45 1013.0 - 0.2
24/09:02am 9.2 -5.7 4.4 72 2.1 SW 72 83 39 45 1012.5 - 0.0
24/09:01am 11.0 1.2 5.3 68 2.6 SW 46 65 25 35 1012.6 - 0.0
24/09:00am 10.7 0.7 4.2 64 2.9 SW 46 78 25 42 1012.4 1012.5 9.2
24/08:37am 10.3 -0.7 3.1 61 3.1 SW 50 69 27 37 1011.8 - 9.2
24/08:30am 10.1 -1.7 2.9 61 3.1 SW 54 70 29 38 1011.8 - 9.2
24/08:01am 7.9 -3.6 4.3 78 1.6 WSW 54 72 29 39 1011.5 - 9.0
24/08:00am 7.9 -3.6 4.5 79 1.5 WSW 54 72 29 39 1011.6 - 9.0
24/07:59am 7.9 -3.6 4.3 78 1.6 WSW 54 72 29 39 1011.5 - 9.0
24/07:58am 7.8 -4.2 4.0 77 1.6 WSW 56 72 30 39 1011.4 - 8.8
24/07:55am 8.3 0.5 4.7 78 1.6 W 35 54 19 29 1011.1 - 8.6
24/07:53am 8.3 0.5 4.7 78 1.6 W 35 54 19 29 1011.1 - 8.6
24/07:30am 8.0 0.8 2.9 70 2.2 W 30 39 16 21 1010.3 - 8.2
24/07:00am 7.8 0.1 2.5 69 2.2 WNW 32 43 17 23 1010.1 - 8.2
24/06:30am 8.4 0.9 3.5 71 2.1 W 32 56 17 30 1009.7 - 8.2
24/06:24am 7.9 -1.0 3.2 72 2.0 W 39 57 21 31 1009.6 - 8.2
24/06:13am 8.7 -0.2 3.3 69 2.3 W 39 46 21 25 1009.3 - 8.2
24/06:10am 9.2 -3.1 3.2 66 2.6 WSW 57 67 31 36 1008.8 - 8.2
24/06:04am 9.1 0.7 3.7 69 2.3 W 37 57 20 31 1008.8 - 8.2
24/06:02am 9.1 0.7 3.7 69 2.3 W 37 57 20 31 1008.8 - 8.2
24/06:00am 9.0 0.6 3.6 69 2.3 W 37 50 20 27 1009.0 1008.8 8.2
24/05:31am 8.7 0.4 4.1 73 2.0 WSW 37 59 20 32 1008.1 - 8.2
24/05:30am 8.7 0.4 4.3 74 1.9 WSW 37 54 20 29 1008.1 - 8.2
24/05:24am 7.9 -1.2 4.1 77 1.6 WSW 41 59 22 32 1008.2 - 8.0
24/05:23am 8.0 -1.0 4.4 78 1.6 WSW 41 61 22 33 1008.3 - 8.0
24/05:21am 8.1 -1.4 3.8 74 1.9 W 43 59 23 32 1008.2 - 7.8
24/05:20am 7.9 -2.6 3.8 75 1.8 WSW 48 61 26 33 1008.1 - 8.0
24/05:18am 8.3 1.1 3.2 70 2.2 WNW 30 52 16 28 1008.0 - 7.8
24/05:16am 8.3 1.1 3.2 70 2.2 WNW 30 52 16 28 1008.0 - 7.8
24/05:00am 8.0 1.2 3.1 71 2.1 W 28 44 15 24 1007.5 - 7.8
24/04:55am 8.4 1.3 3.5 71 2.1 W 30 48 16 26 1007.6 - 7.8
24/04:43am 9.0 1.5 3.6 69 2.3 WNW 32 37 17 20 1007.1 - 7.8
24/04:41am 9.0 1.5 3.6 69 2.3 WNW 32 52 17 28 1007.1 - 7.8
24/04:30am 8.6 -0.4 4.4 75 1.8 WSW 41 76 22 41 1006.9 - 7.8
24/04:23am 9.3 -0.7 4.5 72 2.1 WSW 46 76 25 41 1006.6 - 7.6
24/04:22am 9.0 2.0 4.0 71 2.2 W 30 50 16 27 1007.0 - 7.6
24/04:21am 9.3 -0.7 4.5 72 2.1 WSW 46 76 25 41 1006.6 - 7.6
24/04:20am 9.0 1.6 4.0 71 2.2 W 32 50 17 27 1007.0 - 7.6
24/04:00am 9.0 3.1 3.8 70 2.3 W 24 35 13 19 1006.4 - 7.6
24/03:30am 8.8 1.4 4.2 73 2.0 W 32 43 17 23 1006.0 - 7.6
24/03:16am 9.0 0.8 4.6 74 1.9 WSW 37 56 20 30 1005.8 - 7.6
24/03:15am 9.0 0.8 4.6 74 1.9 WSW 37 56 20 30 1005.8 - 7.6
24/03:00am 8.3 -1.6 4.9 79 1.5 WSW 46 59 25 32 1005.4 1005.4 7.6
24/02:51am 8.5 -2.0 5.6 82 1.3 SW 50 69 27 37 1005.7 - 7.6
24/02:49am 8.6 -2.7 5.5 81 1.4 SW 54 69 29 37 1005.5 - 7.6
24/02:34am 8.1 -0.1 4.9 80 1.4 W 37 67 20 36 1005.4 - 7.0
24/02:32am 8.1 -0.1 4.9 80 1.4 W 37 67 20 36 1005.4 - 7.0
24/02:30am 8.5 0.4 5.3 80 1.4 W 37 50 20 27 1005.8 - 7.0
24/02:06am 8.4 0.5 4.6 77 1.7 WSW 35 54 19 29 1005.1 - 6.6
24/02:00am 8.4 -0.6 4.6 77 1.7 WSW 41 54 22 29 1004.9 - 6.6
24/01:35am 9.5 2.2 4.7 72 2.1 W 32 57 17 31 1004.8 - 6.4
24/01:33am 9.5 2.2 4.7 72 2.1 W 32 57 17 31 1004.8 - 6.4
24/01:30am 9.8 2.8 4.2 68 2.5 W 30 41 16 22 1004.6 - 6.4
24/01:19am 9.7 3.1 4.1 68 2.5 W 28 46 15 25 1004.2 - 6.4
24/01:17am 9.7 3.1 4.1 68 2.5 W 28 46 15 25 1004.2 - 6.4
24/01:13am 9.9 2.9 4.1 67 2.6 W 30 46 16 25 1004.3 - 6.4
24/01:11am 9.9 2.9 4.1 67 2.6 W 30 46 16 25 1004.3 - 6.4
24/01:00am 9.1 4.9 3.9 70 2.3 WNW 15 26 8 14 1004.5 - 6.4
24/12:30am 9.9 4.5 4.5 69 2.4 W 22 33 12 18 1004.4 - 6.4
24/12:00am 9.8 4.0 4.2 68 2.5 WSW 24 32 13 17 1004.2 1004.1 6.4
 
Date/Time
CST
Temp
°C
App
Temp
°C
Dew
Point
°C
Rel
Hum
%
Delta-T
°C
Wind Press
QNH
hPa
Press
MSL
hPa
Rain since
9am
mm
Dir  Spd
km/h
Gust
km/h
Spd
kts
Gust
kts
23/11:30pm 9.7 4.6 4.3 69 2.4 W 20 28 11 15 1004.1 - 6.4
23/11:00pm 9.7 4.3 4.7 71 2.2 W 22 32 12 17 1004.3 - 6.4
23/10:30pm 9.2 3.4 4.4 72 2.1 W 24 35 13 19 1004.2 - 6.4
23/10:00pm 9.1 2.9 4.3 72 2.1 W 26 39 14 21 1004.2 - 6.4
23/09:30pm 8.6 3.6 4.8 77 1.7 W 20 30 11 16 1004.1 - 6.4
23/09:00pm 8.6 1.8 5.0 78 1.6 W 30 39 16 21 1003.8 1003.8 6.4
23/08:49pm 8.9 0.4 5.3 78 1.6 WSW 39 57 21 31 1004.0 - 6.4
23/08:47pm 8.9 0.4 5.3 78 1.6 WSW 39 57 21 31 1004.0 - 6.4
23/08:45pm 9.0 -0.3 5.2 77 1.7 WSW 43 57 23 31 1004.0 - 6.4
23/08:44pm 9.0 -0.2 5.4 78 1.6 WSW 43 57 23 31 1004.0 - 6.4
23/08:30pm 8.6 3.3 5.0 78 1.6 W 22 30 12 16 1003.8 - 6.4
23/08:00pm 8.5 3.4 4.3 75 1.8 W 20 32 11 17 1003.3 - 6.4
23/07:30pm 8.9 1.4 4.5 74 1.9 W 33 57 18 31 1003.1 - 6.4
23/07:16pm 10.2 3.3 4.4 67 2.6 W 30 56 16 30 1003.0 - 6.0
23/07:15pm 10.3 3.8 4.9 69 2.4 W 28 44 15 24 1003.0 - 6.0
23/07:14pm 10.2 2.9 4.4 67 2.6 W 32 56 17 30 1003.0 - 6.0
23/07:12pm 10.3 3.9 5.1 70 2.4 W 28 44 15 24 1003.0 - 6.0
23/07:00pm 9.2 5.6 5.2 76 1.8 WNW 13 17 7 9 1002.5 - 6.0
23/06:30pm 9.8 6.5 6.2 78 1.7 WNW 13 17 7 9 1002.3 - 6.0
23/06:00pm 10.2 6.5 6.5 78 1.7 WNW 15 19 8 10 1001.8 1001.9 6.0
23/05:30pm 10.4 6.4 6.5 77 1.8 WNW 17 28 9 15 1001.7 - 6.0
23/05:00pm 10.7 5.7 6.3 74 2.1 WNW 22 30 12 16 1001.4 - 6.0
23/04:30pm 10.9 6.3 6.5 74 2.1 WNW 20 26 11 14 1001.3 - 6.0
23/04:00pm 11.0 6.4 6.6 74 2.1 WNW 20 30 11 16 1001.1 - 6.0
23/03:30pm 10.8 5.5 6.6 75 2.0 WNW 24 32 13 17 1001.1 - 6.0
23/03:00pm 10.1 5.5 6.4 78 1.7 WNW 20 30 11 16 1000.8 1000.6 6.0
23/02:30pm 10.4 3.6 7.1 80 1.6 W 32 44 17 24 1001.0 - 5.8
23/02:28pm 10.6 3.7 7.3 80 1.6 W 33 52 18 28 1001.2 - 5.6
23/02:20pm 11.0 4.0 6.7 75 2.0 W 33 46 18 25 1001.2 - 5.4
23/02:00pm 11.4 6.6 7.5 77 1.9 W 22 37 12 20 1000.7 - 5.2
23/01:30pm 11.7 7.2 8.4 80 1.6 W 22 30 12 16 1000.4 - 5.2
23/01:00pm 11.8 7.7 7.9 77 1.9 WNW 19 26 10 14 1000.8 - 5.2
23/12:30pm 10.9 5.6 6.6 75 2.0 WNW 24 37 13 20 1001.1 - 5.2
23/12:00pm 11.1 3.9 7.8 80 1.6 WNW 35 52 19 28 1001.3 1001.3 5.0
23/11:30am 10.8 4.5 7.5 80 1.6 WNW 30 44 16 24 1001.5 - 3.6
23/11:22am 10.5 2.4 7.2 80 1.6 WNW 39 52 21 28 1001.4 - 3.6
23/11:00am 10.1 1.7 7.5 84 1.2 W 41 59 22 32 1001.6 - 2.4
23/10:43am 10.7 2.9 6.8 77 1.8 W 37 67 20 36 1001.8 - 0.6
23/10:41am 12.5 5.3 9.3 81 1.6 W 37 56 20 30 1002.1 - 0.6
23/10:40am 12.5 4.5 9.1 80 1.7 W 41 56 22 30 1002.0 - 0.6
23/10:39am 12.5 5.7 9.3 81 1.6 W 35 67 19 36 1002.1 - 0.6
23/10:30am 12.3 2.2 9.1 81 1.6 NW 52 78 28 42 1001.1 - 0.6
23/10:00am 13.3 3.1 8.6 73 2.4 WNW 52 78 28 42 1000.3 - 0.0
23/09:53am 13.4 3.1 8.3 71 2.5 WNW 52 72 28 39 1000.1 - 0.0
23/09:51am 13.7 2.7 8.5 71 2.6 WNW 56 69 30 37 1000.3 - 0.0
23/09:30am 14.4 7.6 7.9 65 3.2 NW 33 59 18 32 1000.8 - 0.0
23/09:08am 14.1 7.3 7.6 65 3.2 NW 33 54 18 29 1000.9 - 0.0
23/09:06am 14.1 7.3 7.6 65 3.2 NW 33 54 18 29 1000.9 - 0.0
23/09:00am 14.0 6.8 7.8 66 3.1 NW 35 50 19 27 1000.9 1001.0 0.0
23/08:33am 13.6 6.2 8.2 70 2.7 NW 37 56 20 30 1001.3 - 0.0
23/08:31am 13.6 6.2 8.2 70 2.7 NW 37 56 20 30 1001.3 - 0.0
23/08:30am 13.6 5.7 8.0 69 2.8 NW 39 56 21 30 1001.2 - 0.0
23/08:00am 13.3 6.2 8.2 71 2.5 NW 35 56 19 30 1001.6 - 0.0
23/07:42am 13.5 5.7 8.1 70 2.7 NW 39 63 21 34 1001.5 - 0.0
23/07:40am 13.5 6.0 8.1 70 2.7 NW 37 63 20 34 1001.5 - 0.0
23/07:30am 13.4 6.4 8.3 71 2.5 NW 35 48 19 26 1001.6 - 0.0
23/07:08am 13.3 6.7 8.6 73 2.4 NW 33 52 18 28 1001.8 - 0.0
23/07:06am 13.3 6.7 8.6 73 2.4 NW 33 52 18 28 1001.8 - 0.0
23/07:00am 13.1 6.7 8.6 74 2.2 NW 32 48 17 26 1001.8 - 0.0
23/06:46am 13.1 7.5 8.8 75 2.2 NW 28 46 15 25 1002.0 - 0.0
23/06:44am 13.1 7.5 8.8 75 2.2 NW 28 46 15 25 1002.0 - 0.0

Other Formats:

Comma delimited format used in spreadsheet applications
http://www.bom.gov.au/fwo/IDS60801/IDS60801.94677.axf

JavaScript Object Notation format (JSON) in row-major order
http://www.bom.gov.au/fwo/IDS60801/IDS60801.94677.json